Flight Track Log - Related Links

Times and Time Zones

All times are in EDT time to prevent confusion due to time zone crossing. See the SWA279 flight status page for this flight to view local times or setup timezone preferences in your user account.

Time Position Orientation Groundspeed Altitude Reporting Facility
EDT Latitude Longitude Course Direction KTS MPH feet Rate Location/Type
Fri 09:40:17 PM 39.5333 -119.7667 349° North 172 198 6,100  Level Northern Cal TRACON
Fri 09:41:11 PM 39.6000 -119.7833 349° North 235 270 7,900 2,500 Climbing Northern Cal TRACON
Fri 09:42:17 PM 39.6667 -119.8000 349° North 250 288 11,100 2,512 Climbing Northern Cal TRACON
Fri 09:42:37 PM 39.6850 -119.8097 338° Northwest 233 268 11,500 2,195 Climbing Oakland Center
Fri 09:43:39 PM 39.7811 -119.8442 345° North 320 368 14,100 2,927 Climbing Oakland Center
Fri 09:44:40 PM 39.8700 -119.9117 330° Northwest 357 411 17,500 3,246 Climbing Oakland Center
Fri 09:45:41 PM 39.9622 -119.9833 329° Northwest 379 436 20,700 2,976 Climbing Oakland Center
Fri 09:46:43 PM 40.0567 -120.0581 329° Northwest 393 452 23,600 2,537 Climbing Oakland Center
Fri 09:47:44 PM 40.1542 -120.1322 330° Northwest 404 465 25,900 2,098 Climbing Oakland Center
Fri 09:48:46 PM 40.2550 -120.2111 329° Northwest 417 480 27,900 1,902 Climbing Oakland Center
Fri 09:49:47 PM 40.3625 -120.2942 330° Northwest 444 511 29,800 1,963 Climbing Oakland Center
Fri 09:50:33 PM 40.4433 -120.3522 331° Northwest 443 510 31,400 2,852 Climbing Seattle Center
Fri 09:50:48 PM 40.4931 -120.3836 334° Northwest 439 505 32,700 2,754 Climbing Oakland Center
Fri 09:51:34 PM 40.5753 -120.4314 336° Northwest 434 499 34,200 1,868 Climbing Seattle Center
Fri 09:52:34 PM 40.6931 -120.4731 345° North 437 503 36,000 1,558 Climbing Seattle Center
Fri 09:52:51 PM 40.7147 -120.4819 343° North 439 505 36,200 1,154 Climbing Oakland Center
Fri 09:53:52 PM 40.8339 -120.5142 348° North 441 507 37,500 1,029 Climbing Oakland Center
Fri 09:54:36 PM 40.9317 -120.5419 348° North 443 510 38,000 286 Climbing Seattle Center
Fri 09:55:37 PM 41.0367 -120.6167 332° Northwest 431 496 38,000  Level Seattle Center
Fri 09:55:55 PM 41.0544 -120.6350 322° Northwest 428 493 38,000  Level Oakland Center
Fri 09:56:38 PM 41.1425 -120.6869 336° Northwest 427 491 38,000  Level Seattle Center
Fri 09:57:39 PM 41.2492 -120.7567 334° Northwest 429 494 38,000  Level Seattle Center
Fri 09:58:40 PM 41.3547 -120.8261 334° Northwest 426 490 38,000  Level Seattle Center
Fri 09:59:41 PM 41.4589 -120.8958 333° Northwest 420 483 38,000  Level Seattle Center
Fri 10:00:42 PM 41.5636 -120.9653 334° Northwest 420 483 38,000  Level Seattle Center
Fri 10:01:43 PM 41.6708 -121.0372 333° Northwest 429 494 38,000  Level Seattle Center
Fri 10:02:44 PM 41.7778 -121.1064 334° Northwest 430 495 38,000  Level Seattle Center
Fri 10:03:45 PM 41.8842 -121.1778 333° Northwest 429 494 38,000  Level Seattle Center
Fri 10:04:45 PM 42.0117 -121.2642 333° Northwest 429 494 38,000  Level Seattle Center
Fri 10:05:46 PM 42.1183 -121.3344 334° Northwest 430 495 38,000  Level Seattle Center
Fri 10:06:47 PM 42.2283 -121.4094 333° Northwest 435 501 38,000  Level Seattle Center
Fri 10:07:48 PM 42.3331 -121.4800 334° Northwest 436 502 38,000  Level Seattle Center
Fri 10:08:49 PM 42.4394 -121.5508 334° Northwest 432 497 38,000  Level Seattle Center
Fri 10:09:50 PM 42.5469 -121.6253 333° Northwest 437 503 38,000  Level Seattle Center
Fri 10:10:51 PM 42.6547 -121.6972 334° Northwest 434 499 38,000  Level Seattle Center
Fri 10:11:52 PM 42.7603 -121.7708 333° Northwest 429 494 38,000  Level Seattle Center
Fri 10:12:53 PM 42.8664 -121.8433 333° Northwest 429 494 38,000  Level Seattle Center
Fri 10:13:54 PM 42.9717 -121.9172 333° Northwest 426 490 38,000  Level Seattle Center
Fri 10:14:54 PM 43.0972 -122.0028 334° Northwest 422 486 38,000  Level Seattle Center
Fri 10:15:55 PM 43.2036 -122.0764 333° Northwest 427 491 38,000  Level Seattle Center
Fri 10:16:56 PM 43.2989 -122.1431 333° Northwest 433 498 38,000  Level Seattle Center
Fri 10:17:57 PM 43.4058 -122.2167 333° Northwest 431 496 38,000  Level Seattle Center
Fri 10:18:58 PM 43.5333 -122.3075 333° Northwest 431 496 38,000  Level Seattle Center
Fri 10:19:59 PM 43.6400 -122.3833 333° Northwest 431 496 38,000  Level Seattle Center
Fri 10:21:00 PM 43.7456 -122.4608 332° Northwest 429 494 38,000  Level Seattle Center
Fri 10:22:01 PM 43.8522 -122.5369 333° Northwest 433 498 38,000 -934 Level Seattle Center
Fri 10:23:02 PM 43.9581 -122.6136 332° Northwest 428 493 36,100 -2,459 Descending Seattle Center
Fri 10:24:03 PM 44.0631 -122.6883 333° Northwest 426 490 33,000 -3,098 Descending Seattle Center
Fri 10:25:04 PM 44.1750 -122.7478 339° North 435 501 29,800 -3,124 Descending Seattle Center
Fri 10:26:04 PM 44.3006 -122.7369 North 453 521 26,700 -2,876 Descending Seattle Center
Fri 10:27:05 PM 44.4264 -122.7247 North 443 510 24,000 -2,557 Descending Seattle Center
Fri 10:28:06 PM 44.5425 -122.7153 North 426 490 21,500 -2,410 Descending Seattle Center
Fri 10:29:07 PM 44.6528 -122.7039 North 404 465 19,100 -2,361 Descending Seattle Center
Fri 10:30:08 PM 44.7581 -122.6922 North 387 445 16,700 -2,675 Descending Seattle Center
Fri 10:30:30 PM 44.8108 -122.6886 North 380 437 15,400 -2,500 Descending Seattle Center
Fri 10:31:08 PM 44.8628 -122.6822 North 381 438 14,200 -2,444 Descending Seattle Center
Fri 10:31:24 PM 44.9039 -122.6783 North 372 428 13,200 -2,262 Descending Seattle Center
Fri 10:32:09 PM 44.9619 -122.6733 North 367 422 11,900 -2,164 Descending Seattle Center
Fri 10:32:25 PM 45.0014 -122.6667 North 355 409 11,000 -1,770 Descending Seattle Center
Fri 10:33:10 PM 45.0775 -122.6608 North 353 406 10,100 -1,132 Descending Seattle Center
Fri 10:34:11 PM 45.1567 -122.6517 North 293 337 9,000 -1,131 Descending Seattle Center
Fri 10:35:12 PM 45.2361 -122.6442 North 288 331 7,800 -1,279 Descending Seattle Center
Fri 10:36:13 PM 45.2847 -122.5603 51° Northeast 284 327 6,400 -1,339 Descending Seattle Center
Fri 10:37:13 PM 45.3267 -122.4672 57° Northeast 282 325 5,100 -1,339 Descending Seattle Center
Fri 10:38:14 PM 45.3811 -122.3942 43° Northeast 277 319 3,700 -1,180 Descending Seattle Center
Fri 10:39:15 PM 45.4481 -122.3464 27° Northeast 272 313 2,700 -639 Descending Seattle Center
Fri 10:40:16 PM 45.5042 -122.3761 340° North 243 280 2,400 -148 Descending Seattle Center
Fri 10:40:36 PM 45.5172 -122.4011 307° West 204 235 2,500 -393 Climbing Seattle Center
Fri 10:41:17 PM 45.5344 -122.4397 302° West 220 253 2,000 -832 Descending Seattle Center
Fri 10:42:17 PM 45.5581 -122.5017 299° West 196 226 1,100 -843 Descending Seattle Center
Fri 10:43:18 PM 45.5778 -122.5522 299° West 175 201 300 -787 Descending Seattle Center

Login

Don't have an account? Register now (free) for customized features, flight alerts, and more!